Flag for USA

Past Weather in Kodachrome Basin State Park, Utah, USA — Yesterday and Last 2 Weeks

Currently: 55 °F. Clear. (Weather station: Colorado City Municipal Airport, USA). See more current weather

Past Weather in Kodachrome Basin State Park — Graph

°F

Kodachrome Basin State Park Temperature Yesterday

Maximum temperature yesterday: 90 °F (at 3:15 pm)
Minimum temperature yesterday: 52 °F (at 7:35 am)
Average temperature yesterday: 73 °F

High & Low Weather Summary for the Past Weeks

 TemperatureHumidityPressure
High97 °F (Sep 10, 5:15 pm)100% (Sep 19, 1:35 am)30.46 "Hg (Sep 19, 1:35 am)
Low41 °F (Sep 21, 4:55 am)10% (Sep 14, 4:15 pm)29.98 "Hg (Sep 16, 4:35 pm)
Average71 °F32%30.18 "Hg
* Reported Sep 10 12:15 am — Sep 25 12:35 am, Kodachrome Basin State Park. Weather by CustomWeather, © 2021

Note: Actual official high and low records may vary slightly from our data, if they occured in-between our weather recording intervals... More about our weather records

Kodachrome Basin State Park Weather History for the Previous 24 Hours

Scroll right to see more
 ConditionsComfort  
Time TempWeatherWind HumidityBarometerVisibility
12:35 am
Sat, Sep 25
57 °FClear.6 mph31%30.19 "Hg10 mi
12:15 am61 °FClear.6 mph29%30.18 "Hg10 mi
11:55 pm
Fri, Sep 24
59 °FClear.No wind31%30.18 "Hg10 mi
11:15 pm61 °FClear.3 mph29%30.18 "Hg10 mi
10:55 pm59 °FClear.5 mph31%30.18 "Hg10 mi
10:35 pm59 °FClear.6 mph29%30.18 "Hg10 mi
10:15 pm59 °FClear.10 mph29%30.17 "Hg10 mi
9:55 pm63 °FClear.No wind27%30.17 "Hg10 mi
9:35 pm64 °FClear.5 mph26%30.16 "Hg10 mi
9:15 pm68 °FClear.3 mph21%30.16 "Hg10 mi
8:55 pm73 °FClear.3 mph17%30.15 "Hg10 mi
8:35 pm73 °FClear.6 mph19%30.15 "Hg10 mi
7:55 pm77 °FClear.8 mph17%30.13 "Hg10 mi
7:35 pm81 °FClear.9 mph15%30.14 "Hg10 mi
7:15 pm82 °FSunny.7 mph15%30.13 "Hg10 mi
6:55 pm86 °FSunny.5 mph13%30.13 "Hg10 mi
6:15 pm86 °FSunny.8 mph13%30.13 "Hg10 mi
5:55 pm88 °FSunny.9 mph13%30.13 "Hg10 mi
5:35 pm88 °FSunny.10 mph13%30.13 "Hg10 mi
5:15 pm88 °FSunny.13 mph13%30.13 "Hg10 mi
4:55 pm88 °FSunny.10 mph13%30.14 "Hg10 mi
4:35 pm90 °FSunny.7 mph12%30.15 "Hg10 mi
4:15 pm90 °FSunny.No wind12%30.15 "Hg10 mi
3:55 pm90 °FSunny.6 mph12%30.15 "Hg10 mi
3:35 pm90 °FSunny.10 mph12%30.16 "Hg10 mi
3:15 pm90 °FSunny.5 mph11%30.16 "Hg10 mi
2:55 pm88 °FSunny.6 mph12%30.17 "Hg10 mi
2:35 pm88 °FSunny.No wind12%30.18 "Hg10 mi
2:15 pm88 °FSunny.5 mph13%30.19 "Hg10 mi
1:55 pm88 °FSunny.6 mph13%30.20 "Hg10 mi
1:35 pm86 °FSunny.7 mph12%30.20 "Hg10 mi
1:15 pm86 °FSunny.5 mph13%30.20 "Hg10 mi
12:55 pm86 °FSunny.6 mph14%30.21 "Hg10 mi
12:35 pm82 °FSunny.5 mph16%30.22 "Hg10 mi
12:15 pm82 °FSunny.8 mph16%30.22 "Hg10 mi
11:55 am81 °FSunny.3 mph16%30.23 "Hg10 mi
11:15 am79 °FSunny.No wind17%30.23 "Hg10 mi
10:55 am79 °FSunny.No wind17%30.24 "Hg10 mi
10:35 am77 °FSunny.No wind19%30.24 "Hg10 mi
10:15 am73 °FSunny.No wind22%30.24 "Hg10 mi
9:55 am72 °FSunny.No wind23%30.23 "Hg10 mi
9:35 am70 °FSunny.No wind25%30.23 "Hg10 mi
9:15 am68 °FSunny.3 mph26%30.23 "Hg10 mi
8:55 am63 °FSunny.No wind32%30.23 "Hg10 mi
8:35 am61 °FSunny.5 mph34%30.22 "Hg10 mi
8:15 am54 °FSunny.12 mph44%30.22 "Hg10 mi
7:55 am54 °FSunny.No wind41%30.21 "Hg10 mi
7:35 am52 °FSunny.9 mph47%30.21 "Hg10 mi
7:15 am54 °FClear.No wind41%30.20 "Hg10 mi
6:55 am54 °FClear.3 mph38%30.20 "Hg10 mi
6:35 am59 °FClear.No wind34%30.20 "Hg10 mi
6:15 am63 °FClear.6 mph30%30.19 "Hg10 mi
5:55 am64 °FClear.No wind30%30.19 "Hg10 mi
5:15 am68 °FClear.8 mph26%30.18 "Hg10 mi
4:55 am64 °FClear.8 mph30%30.18 "Hg10 mi
4:35 am68 °FClear.5 mph26%30.18 "Hg10 mi
4:15 am72 °FClear.12 mph22%30.17 "Hg10 mi
3:55 am72 °FClear.12 mph22%30.17 "Hg10 mi
3:35 am70 °FClear.12 mph23%30.17 "Hg10 mi
3:15 am70 °FClear.14 mph23%30.18 "Hg10 mi
2:55 am70 °FClear.7 mph21%30.18 "Hg10 mi
2:35 am72 °FClear.7 mph20%30.17 "Hg10 mi
2:15 am66 °FClear.5 mph24%30.17 "Hg10 mi
1:55 am68 °FClear.3 mph23%30.16 "Hg10 mi
1:35 am64 °FClear.5 mph26%30.16 "Hg10 mi
1:15 am66 °FClear.14 mph24%30.15 "Hg10 mi
Weather by CustomWeather, © 2021

See weather overview